»·PEaware :: N7GL KVNY-KGCN

N7GL :: KVNY-KGCN

FLIGHT INFORMATION

Flight Status: Arrived
Operator: Privately registered:
United States
More flights under this callsign
Pilot: Georg L. (13308)
Aircraft: BEECH AIRCRAFT SUPER KING AIR 350
(B350)
More flights by this aircraft type
Origin: KVNY Van Nuys
United States
Destination: KGCN Grand Canyon Natl Park
United States
More flights between these airports :: More routes between these airports
Route: +NUAL1 PMD J6 HEC J64 PGS
File this flight plan on PilotEdge
Remarks:
Altitude:
(Current/Filed)
35,000ft
Speed:
(Current/Filed)
271kts
Departed: 18-Jul-20 01:54 PM
Arrived: 18-Jul-20 03:15 PM
Distance/Time
Traveled:
329nm/1:21
Distance/Time
To Go:
Arrived

Flight Plot

Page will automatically refresh every two minutes.

Flight plan parsing failed; only flown route is shown


Map Options




Map Legend


Flown Route
Filed Route
Departure Airport
Arrival Airport
Navaid (VOR, NDB)
Fix

Horizontal Profiles

Position Reports

Time Latitude Longitude Heading Altitude Ground
Speed
18-Jul-20 13:00 34.211044 -118.486779 204 807ft 0kts
18-Jul-20 13:01 34.211044 -118.486779 204 807ft 0kts
18-Jul-20 13:03 34.211044 -118.486779 204 807ft 0kts
18-Jul-20 13:04 34.211044 -118.486779 204 807ft 0kts
18-Jul-20 13:05 34.211044 -118.486779 204 807ft 0kts
18-Jul-20 13:06 34.211044 -118.486779 204 807ft 0kts
18-Jul-20 13:07 34.211044 -118.486779 204 807ft 0kts
18-Jul-20 13:08 34.211044 -118.486779 204 807ft 0kts
18-Jul-20 13:09 34.211044 -118.486779 204 807ft 0kts
18-Jul-20 13:10 34.211044 -118.486779 204 807ft 0kts
18-Jul-20 13:11 34.211044 -118.486779 204 807ft 0kts
18-Jul-20 13:12 34.211044 -118.486779 204 807ft 0kts
18-Jul-20 13:13 34.211044 -118.486779 204 807ft 0kts
18-Jul-20 13:14 34.211044 -118.486779 204 807ft 0kts
18-Jul-20 13:15 34.211044 -118.486779 204 807ft 0kts
18-Jul-20 13:16 34.211044 -118.486779 204 807ft 0kts
18-Jul-20 13:17 34.211044 -118.486779 204 807ft 0kts
18-Jul-20 13:18 34.211044 -118.486779 204 807ft 0kts
18-Jul-20 13:19 34.211044 -118.486779 204 807ft 0kts
18-Jul-20 13:20 34.211044 -118.486779 204 807ft 0kts
18-Jul-20 13:21 34.211044 -118.486779 204 807ft 0kts
18-Jul-20 13:22 34.211044 -118.486779 204 807ft 0kts
18-Jul-20 13:23 34.211044 -118.486779 204 807ft 0kts
18-Jul-20 13:24 34.211044 -118.486779 204 807ft 0kts
18-Jul-20 13:25 34.211044 -118.486779 204 807ft 0kts
18-Jul-20 13:26 34.211044 -118.486779 204 807ft 0kts
18-Jul-20 13:27 34.211044 -118.486779 204 807ft 0kts
18-Jul-20 13:28 34.211044 -118.486779 204 807ft 0kts
18-Jul-20 13:29 34.211044 -118.486779 204 807ft 0kts
18-Jul-20 13:30 34.211044 -118.486779 204 807ft 0kts
18-Jul-20 13:31 34.211044 -118.486779 204 807ft 0kts
18-Jul-20 13:32 34.211044 -118.486779 204 807ft 0kts
18-Jul-20 13:33 34.211044 -118.486779 204 807ft 0kts
18-Jul-20 13:35 34.211044 -118.486779 204 807ft 0kts
18-Jul-20 13:36 34.211044 -118.486779 204 807ft 0kts
18-Jul-20 13:37 34.211044 -118.486779 204 807ft 0kts
18-Jul-20 13:38 34.211044 -118.486779 204 807ft 0kts
18-Jul-20 13:39 34.211044 -118.486779 204 807ft 0kts
18-Jul-20 13:40 34.211044 -118.486779 204 807ft 0kts
18-Jul-20 13:41 34.211044 -118.486779 204 807ft 0kts
18-Jul-20 13:42 34.211044 -118.486779 204 807ft 0kts
18-Jul-20 13:43 34.211044 -118.486779 204 807ft 0kts
18-Jul-20 13:44 34.211044 -118.486779 204 807ft 0kts
18-Jul-20 13:45 34.211044 -118.486779 204 807ft 0kts
18-Jul-20 13:46 34.210713 -118.486877 181 807ft 3kts
18-Jul-20 13:47 34.210453 -118.486887 180 807ft 0kts
18-Jul-20 13:48 34.210402 -118.488354 333 807ft 8kts
18-Jul-20 13:49 34.214466 -118.488844 5 807ft 14kts
18-Jul-20 13:49 34.217254 -118.489320 348 807ft 21kts
18-Jul-20 13:51 34.218756 -118.489503 336 807ft 0kts
18-Jul-20 13:52 34.218755 -118.489503 336 807ft 0kts
18-Jul-20 13:52 34.218682 -118.489980 174 807ft 0kts
18-Jul-20 13:54 34.184047 -118.483933 167 2110ft 151kts
18-Jul-20 13:54 34.160931 -118.451377 126 3873ft 163kts
18-Jul-20 13:56 34.178164 -118.409774 352 5836ft 192kts
18-Jul-20 13:56 34.222320 -118.416762 352 7304ft 193kts
18-Jul-20 13:57 34.276256 -118.425365 352 8779ft 197kts
18-Jul-20 13:58 34.331363 -118.434391 352 10128ft 202kts
18-Jul-20 13:59 34.387624 -118.444139 352 11400ft 206kts
18-Jul-20 14:00 34.427433 -118.403400 57 12716ft 200kts
18-Jul-20 14:01 34.460121 -118.348990 57 14009ft 204kts
18-Jul-20 14:02 34.498346 -118.285056 56 14015ft 259kts
18-Jul-20 14:03 34.542961 -118.210532 56 14002ft 280kts
18-Jul-20 14:04 34.589325 -118.133157 56 14001ft 286kts
18-Jul-20 14:05 34.631812 -118.051198 77 14007ft 286kts
18-Jul-20 14:06 34.643198 -117.955691 84 14029ft 285kts
18-Jul-20 14:07 34.653292 -117.860055 84 14054ft 285kts
18-Jul-20 14:08 34.663055 -117.768663 84 15926ft 214kts
18-Jul-20 14:09 34.670451 -117.704178 85 17631ft 195kts
18-Jul-20 14:10 34.677513 -117.638867 84 18846ft 197kts
18-Jul-20 14:11 34.684563 -117.572639 85 20049ft 198kts
18-Jul-20 14:12 34.691641 -117.505688 85 21174ft 201kts
18-Jul-20 14:13 34.697560 -117.449566 84 22148ft 203kts
18-Jul-20 14:14 34.704742 -117.381201 84 23372ft 205kts
18-Jul-20 14:15 34.711971 -117.312099 85 24659ft 206kts
18-Jul-20 14:16 34.719151 -117.242998 85 25981ft 206kts
18-Jul-20 14:17 34.726291 -117.173891 85 27150ft 206kts
18-Jul-20 14:18 34.733398 -117.104744 85 28248ft 206kts
18-Jul-20 14:19 34.740457 -117.035546 85 29319ft 206kts
18-Jul-20 14:20 34.747479 -116.966306 85 30300ft 206kts
18-Jul-20 14:21 34.754495 -116.896651 85 31252ft 208kts
18-Jul-20 14:22 34.761525 -116.826587 85 32111ft 209kts
18-Jul-20 14:23 34.768552 -116.756155 85 32904ft 211kts
18-Jul-20 14:24 34.775598 -116.685032 86 33648ft 214kts
18-Jul-20 14:25 34.782712 -116.612611 86 34321ft 217kts
18-Jul-20 14:26 34.789873 -116.539299 85 34951ft 220kts
18-Jul-20 14:27 34.797701 -116.463884 78 35227ft 240kts
18-Jul-20 14:28 34.821356 -116.380734 71 35174ft 274kts
18-Jul-20 14:29 34.848408 -116.290535 72 35108ft 289kts
18-Jul-20 14:30 34.876179 -116.196864 72 35048ft 298kts
18-Jul-20 14:31 34.903761 -116.100300 73 35018ft 305kts
18-Jul-20 14:32 34.930618 -116.001193 74 34992ft 311kts
18-Jul-20 14:33 34.956518 -115.899484 75 35058ft 313kts
18-Jul-20 14:34 34.980902 -115.796893 76 35060ft 317kts
18-Jul-20 14:35 35.003844 -115.692493 77 35071ft 320kts
18-Jul-20 14:36 35.025116 -115.586714 78 35023ft 324kts
18-Jul-20 14:37 35.044773 -115.478273 79 34949ft 328kts
18-Jul-20 14:38 35.062488 -115.368533 81 34924ft 330kts
18-Jul-20 14:39 35.078076 -115.258609 83 34931ft 330kts
18-Jul-20 14:40 35.102300 -115.152296 68 34949ft 332kts
18-Jul-20 14:41 35.138255 -115.048399 69 34981ft 332kts
18-Jul-20 14:42 35.173104 -114.943844 69 34998ft 332kts
18-Jul-20 14:43 35.207591 -114.839170 69 34997ft 332kts
18-Jul-20 14:44 35.242083 -114.734087 69 34999ft 333kts
18-Jul-20 14:45 35.276639 -114.628437 69 34999ft 334kts
18-Jul-20 14:46 35.311174 -114.522585 69 35000ft 335kts
18-Jul-20 14:47 35.345595 -114.416684 69 35021ft 335kts
18-Jul-20 14:48 35.381046 -114.306816 70 33788ft 350kts
18-Jul-20 14:49 35.415888 -114.198914 70 32258ft 332kts
18-Jul-20 14:50 35.448813 -114.096639 70 30726ft 314kts
18-Jul-20 14:51 35.480535 -113.997871 70 29229ft 312kts
18-Jul-20 14:52 35.513034 -113.896302 69 27784ft 329kts
18-Jul-20 14:53 35.546571 -113.789608 70 26323ft 340kts
18-Jul-20 14:54 35.581011 -113.680098 70 24847ft 345kts
18-Jul-20 14:55 35.615668 -113.570057 69 23364ft 345kts
18-Jul-20 14:56 35.645493 -113.458693 75 21876ft 341kts
18-Jul-20 14:57 35.671093 -113.347691 74 20384ft 335kts
18-Jul-20 14:58 35.694638 -113.248436 74 19018ft 329kts
18-Jul-20 14:59 35.703465 -113.138642 92 17527ft 322kts
18-Jul-20 15:00 35.701186 -113.029344 91 16025ft 315kts
18-Jul-20 15:01 35.700189 -112.923525 91 14512ft 305kts
18-Jul-20 15:02 35.699404 -112.821689 91 12987ft 290kts
18-Jul-20 15:03 35.698572 -112.723509 91 11476ft 283kts
18-Jul-20 15:04 35.697882 -112.628439 90 9969ft 274kts
18-Jul-20 15:05 35.697043 -112.537135 90 9097ft 247kts
18-Jul-20 15:06 35.696327 -112.458593 90 9106ft 219kts
18-Jul-20 15:07 35.715904 -112.394854 38 9127ft 203kts
18-Jul-20 15:08 35.759999 -112.349129 38 9021ft 209kts
18-Jul-20 15:09 35.804188 -112.302827 38 9084ft 206kts
18-Jul-20 15:10 35.850983 -112.253074 37 8215ft 230kts
18-Jul-20 15:11 35.893528 -112.209083 38 7971ft 172kts
18-Jul-20 15:12 35.925311 -112.175540 30 6938ft 128kts
18-Jul-20 15:13 35.951356 -112.148173 40 6573ft 87kts
18-Jul-20 15:14 35.956401 -112.141316 115 6596ft 8kts
18-Jul-20 15:15 35.956871 -112.140461 41 6600ft 1kts
18-Jul-20 15:16 35.958220 -112.138456 165 6610ft 3kts
18-Jul-20 15:17 35.958053 -112.138594 223 6610ft 0kts
18-Jul-20 15:18 35.958053 -112.138594 223 6610ft 0kts
18-Jul-20 15:19 35.958054 -112.138594 223 6610ft 0kts
18-Jul-20 15:20 35.958054 -112.138594 223 6610ft 0kts
18-Jul-20 15:21 35.958054 -112.138594 223 6610ft 0kts
18-Jul-20 15:22 35.958054 -112.138594 223 6610ft 0kts

Navigation Log

Ident Type
Flight plan parsing failed, navigation log unavailable